Gobernador Roca, Argentina
Current Conditions -  °F | °C
As of 1:00 PM on Sunday 23 Nov 2014 (Local Time) from SARP Reporting Station
Clear Clear  
Wind Chill: 27°   Ceiling: Unl
Heat Index: 27°   Visibility: 6mi
Dew Point: 12°   Wind: 3mph
Humidity: 39%   Direction: 50°NE
Pressure: 29.94"   Gusts: NA
Location:  27.18°S, 55.47°W
Report Text: SARP 231600Z 05003KT CAVOK 27/12 Q1014
Loading
Personal Weather Stations






























Interactive Weather Map New forecast layout! Learn more

10-Day Weather Forecast

Advertisements
Track Severe Weather on mobile